Flight Track Log - Related Links

Times and Time Zones

All times are in EDT time to prevent confusion due to time zone crossing. See the JTA564 flight status page for this flight to view local times or setup timezone preferences in your user account.

Time Position Orientation Groundspeed Altitude Reporting Facility
EDT Latitude Longitude Course Direction KTS MPH feet Rate Location/Type
Mon 03:16:00 AM 24.9475 125.5631 56° Northeast  Level Estimated
Mon 03:17:00 AM 25.0022 125.6525 56° Northeast  Level Estimated
Mon 03:18:00 AM 25.0569 125.7421 56° Northeast  Level Estimated
Mon 03:19:00 AM 25.1116 125.8317 56° Northeast  Level Estimated
Mon 03:20:00 AM 25.1662 125.9214 56° Northeast  Level Estimated
Mon 03:21:00 AM 25.2208 126.0112 56° Northeast  Level Estimated
Mon 03:22:00 AM 25.2753 126.1011 56° Northeast  Level Estimated
Mon 03:23:00 AM 25.3297 126.1910 56° Northeast  Level Estimated
Mon 03:24:00 AM 25.3841 126.2811 56° Northeast  Level Estimated
Mon 03:25:00 AM 25.4384 126.3712 56° Northeast  Level Estimated
Mon 03:26:00 AM 25.4927 126.4614 56° Northeast  Level Estimated
Mon 03:27:00 AM 25.5469 126.5517 56° Northeast  Level Estimated
Mon 03:28:00 AM 25.6011 126.6421 56° Northeast  Level Estimated
Mon 03:29:00 AM 25.6552 126.7325 56° Northeast  Level Estimated
Mon 03:30:00 AM 25.7093 126.8230 56° Northeast  Level Estimated
Mon 03:31:00 AM 25.7633 126.9136 56° Northeast  Level Estimated
Mon 03:32:00 AM 25.8172 127.0043 57° Northeast  Level Estimated
Mon 03:33:00 AM 25.8711 127.0951 57° Northeast  Level Estimated
Mon 03:34:00 AM 25.9249 127.1860 57° Northeast  Level Estimated
Mon 03:35:00 AM 25.9787 127.2769 57° Northeast  Level Estimated
Mon 03:36:00 AM 26.0324 127.3679 57° Northeast  Level Estimated
Mon 03:37:00 AM 26.0861 127.4590 57° Northeast  Level Estimated
Mon 03:38:00 AM 26.1397 127.5502 57° Northeast  Level Estimated
Mon 03:39:00 AM 26.1958 127.6459 57° Northeast  Level Estimated
Mon 03:40:00 AM 26.1958 127.6459 347° North  Level Estimated
Mon 03:41:00 AM 26.1958 127.6459 347° North  Level Estimated
Mon 03:42:00 AM 26.1958 127.6459 347° North  Level Estimated
Mon 03:43:00 AM 26.1958 127.6459 347° North  Level Estimated

Login

Don't have an account? Register now (free) for customized features, flight alerts, and more!